Time;durP1;ratioP1;P1;durP2;ratioP2;P2;SDS_P1;SDS_P2;PMS_P1;PMS_P2;Temp;Humidity;BMP_temperature;BMP_pressure;BME280_temperature;BME280_humidity;BME280_pressure;Samples;Min_cycle;Max_cycle;Signal;HPM_P1;HPM_P2
2021/03/25 00:02:17;;;;;;;32.42;20.13;;;11.50;76.50;;;;;;5000680;28;20079;-82
2021/03/25 00:04:43;;;;;;;31.85;20.25;;;11.50;76.60;;;;;;5001280;28;20025;-82
2021/03/25 00:07:09;;;;;;;28.27;19.48;;;11.50;76.70;;;;;;5000765;28;20441;-82
2021/03/25 00:09:39;;;;;;;29.73;19.33;;;11.50;76.90;;;;;;4984868;28;20038;-81
2021/03/25 00:12:06;;;;;;;28.60;19.40;;;11.50;76.90;;;;;;5007274;28;20087;-82
2021/03/25 00:14:32;;;;;;;31.10;20.52;;;11.40;77.00;;;;;;5027805;28;20283;-85
2021/03/25 00:16:58;;;;;;;29.75;19.85;;;11.40;77.00;;;;;;5016040;28;20037;-83
2021/03/25 00:19:23;;;;;;;31.85;19.92;;;11.40;77.10;;;;;;5016171;28;20076;-82
2021/03/25 00:21:49;;;;;;;31.50;19.73;;;11.40;77.20;;;;;;5016639;28;20078;-81
2021/03/25 00:24:17;;;;;;;31.65;19.98;;;11.40;78.00;;;;;;5008084;28;20033;-82
2021/03/25 00:26:43;;;;;;;32.25;20.25;;;11.40;77.60;;;;;;5015630;28;20021;-81
2021/03/25 00:29:13;;;;;;;33.53;20.13;;;11.40;77.70;;;;;;5021946;28;20028;-83
2021/03/25 00:31:40;;;;;;;28.90;19.07;;;11.40;77.80;;;;;;5033801;28;20038;-82
2021/03/25 00:34:06;;;;;;;30.55;19.67;;;11.30;77.80;;;;;;5016409;28;20029;-81
2021/03/25 00:36:32;;;;;;;33.55;20.83;;;11.30;77.90;;;;;;5016140;28;20394;-82
2021/03/25 00:38:58;;;;;;;30.98;19.73;;;11.30;78.00;;;;;;5015663;28;20030;-81
2021/03/25 00:41:25;;;;;;;28.25;20.15;;;11.30;78.10;;;;;;5015725;28;20033;-83
2021/03/25 00:43:51;;;;;;;30.55;19.55;;;11.30;78.10;;;;;;5015682;28;20037;-81
2021/03/25 00:46:17;;;;;;;28.60;19.17;;;11.30;78.20;;;;;;5032216;28;20136;-82
2021/03/25 00:48:42;;;;;;;29.75;19.63;;;11.30;78.30;;;;;;5015782;28;20060;-83
2021/03/25 00:51:09;;;;;;;35.97;21.40;;;11.30;78.50;;;;;;5015695;28;20041;-82
2021/03/25 00:53:36;;;;;;;34.05;22.60;;;11.20;78.40;;;;;;5032015;28;20030;-81
2021/03/25 00:56:04;;;;;;;34.30;20.73;;;11.20;78.70;;;;;;5033773;28;20022;-87
2021/03/25 00:58:30;;;;;;;31.00;20.60;;;11.20;78.80;;;;;;5033690;28;20027;-81
2021/03/25 01:00:59;;;;;;;35.50;21.85;;;11.20;79.30;;;;;;5015778;28;20108;-81
2021/03/25 01:03:26;;;;;;;30.58;19.70;;;11.20;79.20;;;;;;5033490;28;20116;-81
2021/03/25 01:05:53;;;;;;;34.17;21.73;;;11.10;79.10;;;;;;5002249;28;20108;-81
2021/03/25 01:08:19;;;;;;;31.60;20.15;;;11.10;79.20;;;;;;5008076;28;20029;-81
2021/03/25 01:10:54;;;;;;;29.35;18.48;;;11.10;79.20;;;;;;5019288;28;20037;-81
2021/03/25 01:13:20;;;;;;;29.65;20.23;;;11.10;79.40;;;;;;5017746;28;20021;-81
2021/03/25 01:15:45;;;;;;;32.58;20.45;;;11.10;79.40;;;;;;5033613;28;20029;-81
2021/03/25 01:18:11;;;;;;;31.80;19.70;;;11.10;79.40;;;;;;5015411;28;20033;-81
2021/03/25 01:20:40;;;;;;;29.65;19.52;;;11.00;79.40;;;;;;5025826;28;20091;-81
2021/03/25 01:23:07;;;;;;;33.97;21.45;;;11.00;79.40;;;;;;5032732;28;20048;-81
2021/03/25 01:25:34;;;;;;;31.98;20.25;;;11.00;79.50;;;;;;4999040;28;20033;-82
2021/03/25 01:28:02;;;;;;;32.75;21.00;;;11.00;79.60;;;;;;5015632;28;20819;-81
2021/03/25 01:30:30;;;;;;;34.80;21.83;;;10.90;79.60;;;;;;5033523;28;20033;-81
2021/03/25 01:32:56;;;;;;;35.25;21.73;;;11.00;79.70;;;;;;5015060;28;20187;-81
2021/03/25 01:35:22;;;;;;;31.92;20.00;;;10.90;79.80;;;;;;5016045;28;20026;-83
2021/03/25 01:37:50;;;;;;;33.63;21.40;;;10.90;79.80;;;;;;5031540;28;20037;-81
2021/03/25 01:40:20;;;;;;;36.15;23.05;;;10.90;79.90;;;;;;5031769;28;20022;-81
2021/03/25 01:42:46;;;;;;;32.67;21.38;;;10.90;79.90;;;;;;5024270;28;20056;-82
2021/03/25 01:45:30;;;;;;;35.85;21.35;;;10.80;80.00;;;;;;5032070;28;20029;-81
2021/03/25 01:48:00;;;;;;;34.20;21.42;;;10.80;80.10;;;;;;5020374;28;20616;-81
2021/03/25 01:50:26;;;;;;;33.33;20.45;;;10.80;80.20;;;;;;5010540;28;20032;-81
2021/03/25 01:52:56;;;;;;;36.20;22.23;;;10.80;80.30;;;;;;5046505;28;20025;-81
2021/03/25 01:55:46;;;;;;;33.38;20.90;;;10.80;80.50;;;;;;5024408;28;20064;-81
2021/03/25 01:58:18;;;;;;;27.67;18.75;;;10.80;80.50;;;;;;5041811;28;20028;-88
2021/03/25 02:01:15;;;;;;;32.83;21.23;;;10.80;80.90;;;;;;5056510;28;20024;-81
2021/03/25 02:03:50;;;;;;;30.63;20.95;;;10.70;80.80;;;;;;5032134;28;20100;-82
2021/03/25 02:06:24;;;;;;;34.17;20.70;;;10.70;81.00;;;;;;5038418;28;20469;-81
2021/03/25 02:09:13;;;;;;;32.50;20.92;;;10.70;81.10;;;;;;5047191;28;20036;-84
2021/03/25 02:11:51;;;;;;;31.60;20.65;;;10.70;81.10;;;;;;5048995;28;20030;-83
2021/03/25 02:14:38;;;;;;;36.50;22.08;;;10.70;81.20;;;;;;5022265;28;20026;-81
2021/03/25 02:17:14;;;;;;;34.10;22.73;;;10.70;81.50;;;;;;5017079;28;20036;-81
2021/03/25 02:20:12;;;;;;;34.17;22.00;;;10.60;81.50;;;;;;5051633;28;20045;-81
2021/03/25 02:22:49;;;;;;;30.63;21.10;;;10.60;81.60;;;;;;5033467;28;20078;-81
2021/03/25 02:25:25;;;;;;;32.75;21.60;;;10.60;81.70;;;;;;5032704;28;20044;-81
2021/03/25 02:28:10;;;;;;;37.17;23.23;;;10.60;81.80;;;;;;5032546;28;20049;-82
2021/03/25 02:30:44;;;;;;;38.50;25.30;;;10.50;82.10;;;;;;5030483;28;20084;-81
2021/03/25 02:33:14;;;;;;;45.40;28.85;;;10.50;82.80;;;;;;5031184;28;20028;-82
2021/03/25 02:35:49;;;;;;;39.53;24.98;;;10.40;83.50;;;;;;5031974;28;20025;-81
2021/03/25 02:38:21;;;;;;;41.50;26.38;;;10.30;83.30;;;;;;5030660;28;20109;-81
2021/03/25 02:40:51;;;;;;;36.53;23.67;;;10.30;83.80;;;;;;5029284;28;20067;-82
2021/03/25 02:43:31;;;;;;;34.00;22.45;;;10.30;83.90;;;;;;5002579;28;20476;-81
2021/03/25 02:46:02;;;;;;;32.65;20.77;;;10.30;83.90;;;;;;5031210;28;20017;-81
2021/03/25 02:48:31;;;;;;;35.33;21.70;;;10.30;83.80;;;;;;5031047;28;20377;-83
2021/03/25 02:51:06;;;;;;;30.52;21.02;;;10.30;83.90;;;;;;5033611;28;20033;-83
2021/03/25 02:53:39;;;;;;;38.60;22.83;;;10.30;83.80;;;;;;5047470;28;20083;-81
2021/03/25 02:56:13;;;;;;;36.60;24.00;;;10.30;83.80;;;;;;5034637;28;20571;-82
2021/03/25 02:58:41;;;;;;;36.05;23.55;;;10.40;84.00;;;;;;5017899;28;20056;-82
2021/03/25 03:01:11;;;;;;;35.92;21.98;;;10.30;83.90;;;;;;5031625;28;20067;-81
2021/03/25 03:03:42;;;;;;;34.83;21.92;;;10.40;84.00;;;;;;5041009;28;20032;-81
2021/03/25 03:06:16;;;;;;;32.33;21.45;;;10.40;84.00;;;;;;5041275;28;20033;-82
2021/03/25 03:08:44;;;;;;;33.08;20.95;;;10.40;84.00;;;;;;5020998;28;20468;-81
2021/03/25 03:11:24;;;;;;;31.17;21.27;;;10.40;84.00;;;;;;5034574;28;20021;-82
2021/03/25 03:14:02;;;;;;;34.80;21.38;;;10.40;84.10;;;;;;5005174;28;20458;-81
2021/03/25 03:16:41;;;;;;;34.63;22.38;;;10.40;84.00;;;;;;5034347;28;20025;-82
2021/03/25 03:19:29;;;;;;;33.28;21.48;;;10.40;84.10;;;;;;5043817;28;20524;-82
2021/03/25 03:22:01;;;;;;;37.08;22.73;;;10.40;84.00;;;;;;5036592;28;20167;-82
2021/03/25 03:24:27;;;;;;;34.78;21.65;;;10.40;84.10;;;;;;5034235;28;20013;-81
2021/03/25 03:27:23;;;;;;;36.03;23.38;;;10.40;84.10;;;;;;5037144;28;20106;-82
2021/03/25 03:29:51;;;;;;;35.33;23.27;;;10.40;84.10;;;;;;5019689;28;20057;-81
2021/03/25 03:32:34;;;;;;;34.80;22.65;;;10.50;84.20;;;;;;5032562;28;20029;-81
2021/03/25 03:35:08;;;;;;;35.72;22.45;;;10.50;84.20;;;;;;5035267;28;20100;-82
2021/03/25 03:37:35;;;;;;;35.35;23.40;;;10.40;84.30;;;;;;5033712;28;20466;-82
2021/03/25 03:40:06;;;;;;;35.03;22.77;;;10.40;84.30;;;;;;5035108;28;20025;-81
2021/03/25 03:42:32;;;;;;;37.47;22.30;;;10.40;84.40;;;;;;5014596;28;20069;-81
2021/03/25 03:44:59;;;;;;;36.33;24.08;;;10.40;84.50;;;;;;4976107;28;20037;-81
2021/03/25 03:47:28;;;;;;;41.50;24.90;;;10.50;84.60;;;;;;5017457;28;20079;-81
2021/03/25 03:50:08;;;;;;;35.72;24.42;;;10.50;84.60;;;;;;5017493;28;20409;-81
2021/03/25 03:52:37;;;;;;;37.97;24.08;;;10.50;84.60;;;;;;5033755;28;20382;-83
2021/03/25 03:55:09;;;;;;;38.00;24.77;;;10.40;84.50;;;;;;5035007;28;20093;-81
2021/03/25 03:57:58;;;;;;;35.22;22.67;;;10.40;84.60;;;;;;5033548;28;20393;-81
2021/03/25 04:00:35;;;;;;;35.83;23.60;;;10.40;84.70;;;;;;5034500;28;20026;-81
2021/03/25 04:03:34;;;;;;;38.47;25.38;;;10.50;84.70;;;;;;5032878;28;20100;-81
2021/03/25 04:06:04;;;;;;;39.35;24.10;;;10.50;84.80;;;;;;5035033;28;20355;-82
2021/03/25 04:08:33;;;;;;;38.67;24.58;;;10.40;84.80;;;;;;5033328;28;20373;-81
2021/03/25 04:11:20;;;;;;;36.90;24.05;;;10.40;84.90;;;;;;5033533;28;20033;-81
2021/03/25 04:13:57;;;;;;;39.53;23.70;;;10.50;85.00;;;;;;5017115;28;20428;-81
2021/03/25 04:16:26;;;;;;;36.90;24.23;;;10.40;85.00;;;;;;5016920;28;20068;-81
2021/03/25 04:18:58;;;;;;;41.28;24.50;;;10.50;85.10;;;;;;5033177;28;20473;-81
2021/03/25 04:21:31;;;;;;;38.55;24.83;;;10.40;85.10;;;;;;5031477;28;20087;-84
2021/03/25 04:24:00;;;;;;;40.00;25.25;;;10.40;85.20;;;;;;5031012;28;20473;-81
2021/03/25 04:26:32;;;;;;;40.90;26.48;;;10.40;85.30;;;;;;5031750;28;20025;-83
2021/03/25 04:29:08;;;;;;;39.67;24.52;;;10.40;85.20;;;;;;5014157;28;20013;-81
2021/03/25 04:31:34;;;;;;;37.58;24.20;;;10.40;85.30;;;;;;5014498;28;20033;-82
2021/03/25 04:34:02;;;;;;;35.47;24.05;;;10.40;85.30;;;;;;5014249;28;20040;-82
2021/03/25 04:36:31;;;;;;;39.53;24.33;;;10.40;85.40;;;;;;5022611;28;20075;-81
2021/03/25 04:38:59;;;;;;;42.28;24.13;;;10.40;85.40;;;;;;5015450;28;20060;-82
2021/03/25 04:41:25;;;;;;;37.08;24.55;;;10.40;85.40;;;;;;5015838;28;20084;-81
2021/03/25 04:43:59;;;;;;;38.15;25.40;;;10.40;85.60;;;;;;5029799;28;20552;-83
2021/03/25 04:46:47;;;;;;;38.22;25.27;;;10.40;85.60;;;;;;5032210;28;20079;-82
2021/03/25 04:49:35;;;;;;;39.45;24.77;;;10.40;85.70;;;;;;5032738;28;20461;-82
2021/03/25 04:52:03;;;;;;;36.97;24.75;;;10.40;85.70;;;;;;4998216;28;20041;-81
2021/03/25 04:54:28;;;;;;;40.65;25.05;;;10.40;85.70;;;;;;4999248;28;20037;-81
2021/03/25 04:57:27;;;;;;;40.28;26.45;;;10.30;85.70;;;;;;5033358;28;20476;-81
2021/03/25 04:59:56;;;;;;;44.38;27.48;;;10.30;85.90;;;;;;5032241;28;20018;-81
2021/03/25 05:02:22;;;;;;;50.40;30.73;;;10.30;85.90;;;;;;5015565;28;20037;-83
2021/03/25 05:04:51;;;;;;;43.35;27.40;;;10.30;86.00;;;;;;5013672;28;20033;-82
2021/03/25 05:07:26;;;;;;;47.40;29.83;;;10.30;86.00;;;;;;5031163;28;20026;-83
2021/03/25 05:09:54;;;;;;;45.97;29.55;;;10.20;86.00;;;;;;5030138;28;20033;-82
2021/03/25 05:12:19;;;;;;;47.55;31.08;;;10.20;86.00;;;;;;5039666;28;20028;-81
2021/03/25 05:14:48;;;;;;;54.38;33.28;;;10.20;86.10;;;;;;5018348;28;20084;-83
2021/03/25 05:17:55;;;;;;;57.20;34.25;;;10.10;86.40;;;;;;5031593;28;20473;-81
2021/03/25 05:20:53;;;;;;;57.80;33.20;;;10.10;86.80;;;;;;4989433;28;20496;-82
2021/03/25 05:23:40;;;;;;;51.83;32.22;;;10.00;86.80;;;;;;5029563;28;20091;-81
2021/03/25 05:26:12;;;;;;;54.95;33.60;;;10.00;86.80;;;;;;5040742;28;20119;-81
2021/03/25 05:28:44;;;;;;;59.22;34.92;;;10.00;86.90;;;;;;5032241;28;20022;-81
2021/03/25 05:31:13;;;;;;;60.55;35.40;;;9.90;86.90;;;;;;5017780;28;20059;-81
2021/03/25 05:33:40;;;;;;;55.17;33.67;;;9.90;87.10;;;;;;5052348;28;20029;-81
2021/03/25 05:36:11;;;;;;;55.47;32.80;;;9.90;87.10;;;;;;5002917;28;20462;-81
2021/03/25 05:38:38;;;;;;;62.38;35.70;;;9.90;87.00;;;;;;5023436;28;20034;-81
2021/03/25 05:41:10;;;;;;;61.70;37.88;;;9.80;87.20;;;;;;5051546;28;20055;-82
2021/03/25 05:43:44;;;;;;;59.90;38.70;;;9.80;87.20;;;;;;5054091;28;20037;-89
2021/03/25 05:46:29;;;;;;;62.65;37.72;;;9.70;87.20;;;;;;5061884;28;20009;-91
2021/03/25 05:48:57;;;;;;;53.78;33.88;;;9.70;87.30;;;;;;5055058;28;20507;-82
2021/03/25 05:51:32;;;;;;;54.03;34.75;;;9.70;87.30;;;;;;5056499;28;20033;-81
2021/03/25 05:54:07;;;;;;;61.38;37.03;;;9.60;87.30;;;;;;5061310;28;20029;-83
2021/03/25 05:57:03;;;;;;;64.32;38.15;;;9.60;87.30;;;;;;5067083;28;20473;-82
2021/03/25 05:59:35;;;;;;;66.13;39.05;;;9.60;87.50;;;;;;5064780;28;20032;-83
2021/03/25 06:02:24;;;;;;;56.45;35.00;;;9.50;87.50;;;;;;5037532;28;20018;-81
2021/03/25 06:04:52;;;;;;;51.58;30.65;;;9.50;87.50;;;;;;5014335;28;20032;-81
2021/03/25 06:07:40;;;;;;;47.50;29.88;;;9.50;87.50;;;;;;5032147;28;20017;-82
2021/03/25 06:10:20;;;;;;;46.42;29.33;;;9.50;87.60;;;;;;5022439;28;20469;-81
2021/03/25 06:13:06;;;;;;;46.35;27.48;;;9.50;87.60;;;;;;5016078;28;20092;-81
2021/03/25 06:15:38;;;;;;;43.38;27.13;;;9.60;87.50;;;;;;5012374;28;20036;-81
2021/03/25 06:18:42;;;;;;;43.75;25.90;;;9.50;87.50;;;;;;5009109;28;20032;-80
2021/03/25 06:21:18;;;;;;;46.20;27.48;;;9.50;87.40;;;;;;5001584;28;20045;-81
2021/03/25 06:24:14;;;;;;;44.58;27.00;;;9.50;87.50;;;;;;5027135;28;20028;-81
2021/03/25 06:26:48;;;;;;;43.90;27.02;;;9.50;87.60;;;;;;5006296;28;20508;-81
2021/03/25 06:29:24;;;;;;;43.33;27.60;;;9.50;87.70;;;;;;5035943;28;20102;-81
2021/03/25 06:32:12;;;;;;;48.42;29.17;;;9.50;87.70;;;;;;5027916;28;20030;-87
2021/03/25 06:34:53;;;;;;;54.97;32.75;;;9.50;87.70;;;;;;5030354;28;20454;-83
2021/03/25 06:37:24;;;;;;;65.72;37.17;;;9.50;88.10;;;;;;5014642;28;20021;-81
2021/03/25 06:40:19;;;;;;;50.30;32.10;;;9.50;88.40;;;;;;5013949;28;20031;-84
2021/03/25 06:42:52;;;;;;;57.97;33.80;;;9.40;88.30;;;;;;5033238;28;20041;-81
2021/03/25 06:45:34;;;;;;;54.58;33.65;;;9.40;88.40;;;;;;5032843;28;20018;-83
2021/03/25 06:48:18;;;;;;;61.78;35.15;;;9.40;88.50;;;;;;5029288;28;20029;-82
2021/03/25 06:50:52;;;;;;;74.65;41.20;;;9.40;88.90;;;;;;5028834;28;20044;-83
2021/03/25 06:53:32;;;;;;;74.78;43.95;;;9.40;90.00;;;;;;5038837;28;20027;-82
2021/03/25 06:56:15;;;;;;;68.25;41.92;;;9.30;90.50;;;;;;5012674;28;20497;-82
2021/03/25 06:58:54;;;;;;;77.20;43.42;;;9.40;90.40;;;;;;5014895;28;20018;-82
2021/03/25 07:01:27;;;;;;;74.60;41.30;;;9.30;90.60;;;;;;5029062;28;20029;-82
2021/03/25 07:03:57;;;;;;;62.70;37.92;;;9.40;90.60;;;;;;5031258;28;20026;-82
2021/03/25 07:06:26;;;;;;;55.20;33.85;;;9.40;90.50;;;;;;5013820;28;20114;-82
2021/03/25 07:08:55;;;;;;;55.60;34.60;;;9.40;90.50;;;;;;5013659;28;20022;-81
2021/03/25 07:11:22;;;;;;;70.57;39.22;;;9.40;90.40;;;;;;5014163;28;20466;-81
2021/03/25 07:14:00;;;;;;;62.92;37.35;;;9.40;90.50;;;;;;5010486;28;20104;-82
2021/03/25 07:16:29;;;;;;;61.10;37.10;;;9.50;90.50;;;;;;5031140;28;20009;-84
2021/03/25 07:19:12;;;;;;;65.10;36.53;;;9.50;90.50;;;;;;5023580;28;20077;-82
2021/03/25 07:21:41;;;;;;;76.95;40.03;;;9.50;90.60;;;;;;5011406;28;20029;-82
2021/03/25 07:24:23;;;;;;;72.50;41.08;;;9.50;90.60;;;;;;5030478;28;20017;-82
2021/03/25 07:27:06;;;;;;;75.95;43.42;;;9.50;90.80;;;;;;5029301;28;20067;-82
2021/03/25 07:29:35;;;;;;;76.50;43.47;;;9.50;91.10;;;;;;5014276;28;20108;-82
2021/03/25 07:32:04;;;;;;;90.65;45.88;;;9.50;91.60;;;;;;5025406;28;20037;-81
2021/03/25 07:34:34;;;;;;;84.93;47.88;;;9.40;91.90;;;;;;5033061;28;20033;-85
2021/03/25 07:37:05;;;;;;;77.05;43.03;;;9.40;92.10;;;;;;5029067;28;20470;-81
2021/03/25 07:39:50;;;;;;;79.82;44.10;;;9.40;92.00;;;;;;5004714;28;20441;-82
2021/03/25 07:42:31;;;;;;;78.22;43.22;;;9.50;92.10;;;;;;5026078;28;20370;-84
2021/03/25 07:45:18;;;;;;;74.15;41.10;;;9.50;92.00;;;;;;5029984;28;20060;-82
2021/03/25 07:47:43;;;;;;;79.47;45.80;;;9.60;91.90;;;;;;5032931;28;20389;-81
2021/03/25 07:50:27;;;;;;;84.40;47.38;;;9.60;91.80;;;;;;5016383;28;20036;-81
2021/03/25 07:52:54;;;;;;;83.05;45.13;;;9.60;91.70;;;;;;5016948;28;20474;-82
2021/03/25 07:55:19;;;;;;;80.20;44.55;;;9.60;91.70;;;;;;5034827;28;20027;-81
2021/03/25 07:57:50;;;;;;;73.90;42.85;;;9.60;91.80;;;;;;5015883;28;20537;-85
2021/03/25 08:00:25;;;;;;;75.60;45.50;;;9.60;91.70;;;;;;5016495;28;20147;-81
2021/03/25 08:03:11;;;;;;;67.05;41.55;;;9.60;91.70;;;;;;5033706;28;20033;-80
2021/03/25 08:05:37;;;;;;;68.75;40.22;;;9.70;91.70;;;;;;5036022;28;20036;-80
2021/03/25 08:08:30;;;;;;;76.30;44.47;;;9.80;91.70;;;;;;5033292;28;20017;-82
2021/03/25 08:11:48;;;;;;;70.43;40.72;;;9.80;91.80;;;;;;5037395;28;20076;-87
2021/03/25 08:14:26;;;;;;;62.13;38.35;;;10.00;91.90;;;;;;4981501;28;20023;-86
2021/03/25 08:17:18;;;;;;;67.32;40.08;;;10.00;91.70;;;;;;4995730;28;20113;-87
2021/03/25 08:20:16;;;;;;;65.93;41.13;;;10.10;91.60;;;;;;5002603;28;20049;-86
2021/03/25 08:23:04;;;;;;;63.97;38.53;;;10.20;91.50;;;;;;5019633;28;20029;-86
2021/03/25 08:26:00;;;;;;;64.68;40.60;;;10.30;91.40;;;;;;4994502;28;20026;-86
2021/03/25 08:28:53;;;;;;;61.60;38.10;;;10.30;91.40;;;;;;5012458;28;20056;-86
2021/03/25 08:31:31;;;;;;;62.30;38.35;;;10.40;91.40;;;;;;5032935;28;20025;-86
2021/03/25 08:34:02;;;;;;;62.55;38.25;;;10.50;91.40;;;;;;5019998;28;20097;-89
2021/03/25 08:36:40;;;;;;;66.22;40.65;;;10.50;91.40;;;;;;5006692;28;20474;-86
2021/03/25 08:39:14;;;;;;;66.30;40.55;;;10.60;91.40;;;;;;5024869;28;20026;-87
2021/03/25 08:41:58;;;;;;;61.45;38.65;;;10.70;91.40;;;;;;5030580;28;20148;-87
2021/03/25 08:44:29;;;;;;;67.55;38.55;;;10.70;91.30;;;;;;5005150;28;20033;-86
2021/03/25 08:50:31;;;;;;;71.90;37.70;;;10.90;91.60;;;;;;5001038;28;20374;-86
2021/03/25 08:53:01;;;;;;;60.30;35.80;;;10.90;91.20;;;;;;5000710;28;20052;-86
2021/03/25 08:55:41;;;;;;;56.33;34.75;;;10.90;91.10;;;;;;5028187;28;20037;-87
2021/03/25 08:58:22;;;;;;;51.70;34.60;;;11.00;90.90;;;;;;4995118;28;20423;-88
2021/03/25 09:00:59;;;;;;;56.80;33.72;;;11.10;91.00;;;;;;5005361;28;20030;-87
2021/03/25 09:03:35;;;;;;;55.95;35.15;;;11.20;91.00;;;;;;5011650;28;20042;-80
2021/03/25 09:06:14;;;;;;;58.10;37.50;;;11.30;90.70;;;;;;5022384;28;20057;-82
2021/03/25 09:08:43;;;;;;;57.88;34.88;;;11.40;90.60;;;;;;5019524;28;20052;-81
2021/03/25 09:11:18;;;;;;;55.25;36.42;;;11.50;90.00;;;;;;5012685;28;20045;-82
2021/03/25 09:13:56;;;;;;;51.53;34.28;;;11.60;90.10;;;;;;5026201;28;20045;-83
2021/03/25 09:16:23;;;;;;;56.65;34.05;;;11.70;90.30;;;;;;5010859;28;20053;-81
2021/03/25 09:18:51;;;;;;;50.65;32.92;;;11.70;89.40;;;;;;5023613;28;20534;-80
2021/03/25 09:21:23;;;;;;;49.50;31.00;;;11.80;89.60;;;;;;4996474;28;20117;-81
2021/03/25 09:24:03;;;;;;;51.65;31.00;;;11.90;89.70;;;;;;5015311;28;20097;-82
2021/03/25 09:26:29;;;;;;;47.47;30.50;;;12.00;88.70;;;;;;5013224;28;20265;-83
2021/03/25 09:29:02;;;;;;;51.90;32.83;;;12.00;88.80;;;;;;5023890;28;20054;-83
2021/03/25 09:31:28;;;;;;;49.40;29.75;;;12.10;88.30;;;;;;5045571;28;20077;-84
2021/03/25 09:34:09;;;;;;;46.38;31.30;;;12.20;88.50;;;;;;5019053;28;20064;-81
2021/03/25 09:36:35;;;;;;;53.28;31.58;;;12.30;86.90;;;;;;5031853;28;20036;-82
2021/03/25 09:39:00;;;;;;;44.08;29.25;;;12.40;86.90;;;;;;5022492;28;20085;-85
2021/03/25 09:41:32;;;;;;;44.83;27.45;;;12.50;86.70;;;;;;5018176;28;20041;-82
2021/03/25 09:44:10;;;;;;;41.20;26.42;;;12.60;87.30;;;;;;5030054;28;20029;-80
2021/03/25 09:46:42;;;;;;;33.92;22.67;;;12.70;86.80;;;;;;5007249;28;20023;-82
2021/03/25 09:49:27;;;;;;;41.63;26.50;;;12.80;87.10;;;;;;5017897;28;20037;-81
2021/03/25 09:52:12;;;;;;;38.75;24.98;;;12.90;86.00;;;;;;5011952;28;20041;-81
2021/03/25 09:54:39;;;;;;;41.00;25.60;;;13.00;85.80;;;;;;4989426;28;20412;-81
2021/03/25 09:57:20;;;;;;;39.65;25.63;;;13.10;85.70;;;;;;5012342;28;20025;-81
2021/03/25 10:00:08;;;;;;;40.40;25.95;;;13.30;85.70;;;;;;5036335;28;20068;-84
2021/03/25 10:02:40;;;;;;;37.88;25.83;;;13.40;84.30;;;;;;4996998;28;20029;-82
2021/03/25 10:05:24;;;;;;;43.17;24.63;;;13.40;84.00;;;;;;5007484;28;20449;-84
2021/03/25 10:07:59;;;;;;;35.55;23.35;;;13.50;83.00;;;;;;5011823;28;20030;-82
2021/03/25 10:10:43;;;;;;;35.00;22.70;;;13.60;83.30;;;;;;5012823;28;20029;-81
2021/03/25 10:13:12;;;;;;;33.13;23.27;;;13.60;82.60;;;;;;5015663;28;20534;-83
2021/03/25 10:16:02;;;;;;;33.35;22.88;;;13.70;82.60;;;;;;5014742;28;20018;-82
2021/03/25 10:18:31;;;;;;;35.40;21.08;;;13.80;82.80;;;;;;5020058;28;20034;-81
2021/03/25 10:21:06;;;;;;;35.45;22.85;;;13.80;82.20;;;;;;5014624;28;20482;-81
2021/03/25 10:23:50;;;;;;;33.08;22.25;;;13.90;80.90;;;;;;5007097;28;20057;-82
2021/03/25 10:26:39;;;;;;;33.53;22.38;;;14.00;81.50;;;;;;5032494;28;20029;-82
2021/03/25 10:29:29;;;;;;;36.72;25.13;;;14.00;81.00;;;;;;5009877;28;20061;-83
2021/03/25 10:31:58;;;;;;;36.05;22.65;;;14.00;79.50;;;;;;5035239;28;20033;-80
2021/03/25 10:34:40;;;;;;;37.25;23.55;;;14.10;80.90;;;;;;5010648;28;20030;-81
2021/03/25 10:37:38;;;;;;;38.55;24.20;;;14.20;80.30;;;;;;5019168;28;20418;-80
2021/03/25 10:40:14;;;;;;;39.70;24.00;;;14.20;80.00;;;;;;5015604;28;20418;-81
2021/03/25 10:42:43;;;;;;;37.00;23.75;;;14.30;80.50;;;;;;5026933;28;20119;-81
2021/03/25 10:45:26;;;;;;;39.40;23.95;;;14.40;80.20;;;;;;5016705;28;20076;-81
2021/03/25 10:48:01;;;;;;;32.35;22.20;;;14.50;81.00;;;;;;5013871;28;20028;-80
2021/03/25 10:50:40;;;;;;;32.55;21.70;;;14.60;80.90;;;;;;5030751;28;20022;-83
2021/03/25 10:53:14;;;;;;;33.38;22.17;;;14.60;80.00;;;;;;5033187;28;20022;-80
2021/03/25 10:55:44;;;;;;;30.58;20.83;;;14.70;79.60;;;;;;5047053;28;20021;-84
2021/03/25 10:58:29;;;;;;;31.90;22.73;;;14.70;80.50;;;;;;5032753;28;20017;-82
2021/03/25 11:01:06;;;;;;;30.20;21.80;;;14.90;81.90;;;;;;5021105;28;20030;-83
2021/03/25 11:03:36;;;;;;;37.15;24.83;;;15.00;82.10;;;;;;5021971;28;20037;-81
2021/03/25 11:06:06;;;;;;;31.77;20.85;;;15.10;79.50;;;;;;5024163;28;20031;-87
2021/03/25 11:08:39;;;;;;;27.75;20.20;;;15.10;80.10;;;;;;4989319;28;20176;-77
2021/03/25 11:11:25;;;;;;;31.05;20.73;;;15.20;80.60;;;;;;5012725;28;20038;-83
2021/03/25 11:14:06;;;;;;;32.80;23.85;;;15.20;79.40;;;;;;5017731;28;20018;-81
2021/03/25 11:16:32;;;;;;;34.97;22.08;;;15.20;78.90;;;;;;5013336;28;20411;-80
2021/03/25 11:19:06;;;;;;;28.13;20.15;;;15.20;78.70;;;;;;5013677;28;20100;-87
2021/03/25 11:21:33;;;;;;;28.65;19.80;;;15.20;78.70;;;;;;4995510;28;20042;-82
2021/03/25 11:24:07;;;;;;;29.92;20.50;;;15.20;78.40;;;;;;5007800;28;20117;-83
2021/03/25 11:26:34;;;;;;;26.38;19.20;;;15.10;78.00;;;;;;4994696;28;20037;-82
2021/03/25 11:29:01;;;;;;;25.65;18.15;;;15.10;78.30;;;;;;4998828;28;20029;-82
2021/03/25 11:31:30;;;;;;;27.15;18.90;;;15.10;78.60;;;;;;4978936;28;20058;-82
2021/03/25 11:33:56;;;;;;;23.30;16.42;;;15.10;79.00;;;;;;4993040;28;20099;-82
2021/03/25 11:36:52;;;;;;;22.02;16.92;;;15.10;79.30;;;;;;4978259;28;20050;-82
2021/03/25 11:39:31;;;;;;;18.70;14.80;;;15.20;79.70;;;;;;4978040;28;20030;-83
2021/03/25 11:42:02;;;;;;;20.48;15.88;;;15.20;78.70;;;;;;4993113;28;20036;-83
2021/03/25 11:44:42;;;;;;;20.42;15.02;;;15.20;78.50;;;;;;4977668;28;20050;-85
2021/03/25 11:47:31;;;;;;;21.20;16.13;;;15.20;79.70;;;;;;4996514;28;20022;-82
2021/03/25 11:49:57;;;;;;;20.17;15.35;;;15.10;79.60;;;;;;5008490;28;20050;-82
2021/03/25 11:52:23;;;;;;;21.30;14.55;;;15.20;80.40;;;;;;4976476;28;20077;-83
2021/03/25 11:55:01;;;;;;;19.63;15.32;;;15.20;80.60;;;;;;5001265;28;20420;-82
2021/03/25 11:57:35;;;;;;;20.42;16.15;;;15.20;80.90;;;;;;4994017;28;20041;-81
2021/03/25 12:00:10;;;;;;;21.42;14.70;;;15.20;80.60;;;;;;5010415;28;20034;-85
2021/03/25 12:02:37;;;;;;;19.58;14.85;;;15.10;80.00;;;;;;5010514;28;20030;-81
2021/03/25 12:05:22;;;;;;;17.25;13.35;;;15.00;79.30;;;;;;4993295;28;20030;-83
2021/03/25 12:08:17;;;;;;;18.70;13.23;;;14.90;79.30;;;;;;4990889;28;20022;-82
2021/03/25 12:10:43;;;;;;;19.60;14.98;;;14.90;79.70;;;;;;4991970;28;20113;-85
2021/03/25 12:13:10;;;;;;;18.23;13.60;;;14.70;79.70;;;;;;5008604;28;20026;-83
2021/03/25 12:15:36;;;;;;;19.23;14.07;;;14.70;80.40;;;;;;4994882;28;20034;-82
2021/03/25 12:18:07;;;;;;;19.77;13.77;;;14.70;80.70;;;;;;4993454;28;21338;-83
2021/03/25 12:20:38;;;;;;;19.10;14.18;;;14.70;80.10;;;;;;5001625;28;20050;-83
2021/03/25 12:23:19;;;;;;;20.65;14.32;;;14.70;80.60;;;;;;5014124;28;20429;-83
2021/03/25 12:25:47;;;;;;;22.67;14.80;;;14.60;79.70;;;;;;5014881;28;20026;-83
2021/03/25 12:28:14;;;;;;;21.25;14.32;;;14.50;80.10;;;;;;5019008;28;20404;-82
2021/03/25 12:30:42;;;;;;;19.38;15.82;;;14.50;80.20;;;;;;5012290;28;20133;-83
2021/03/25 12:33:19;;;;;;;18.05;14.07;;;14.50;79.50;;;;;;5036791;28;20022;-83
2021/03/25 12:35:45;;;;;;;17.92;13.52;;;14.50;80.00;;;;;;5038040;28;20034;-83
2021/03/25 12:38:11;;;;;;;18.98;14.68;;;14.50;80.70;;;;;;5013798;28;20032;-83
2021/03/25 12:40:36;;;;;;;18.58;14.82;;;14.50;80.30;;;;;;5001697;28;20030;-82
2021/03/25 12:43:02;;;;;;;18.88;14.57;;;14.50;80.10;;;;;;4995272;28;20425;-83
2021/03/25 12:45:43;;;;;;;21.33;15.52;;;14.50;80.40;;;;;;5038408;28;20492;-83
2021/03/25 12:48:09;;;;;;;20.42;15.95;;;14.50;80.50;;;;;;5033002;28;20021;-83
2021/03/25 12:50:36;;;;;;;18.27;14.88;;;14.40;80.60;;;;;;5036337;28;20405;-83
2021/03/25 12:53:03;;;;;;;18.95;14.32;;;14.40;81.10;;;;;;5022104;28;20083;-83
2021/03/25 12:55:31;;;;;;;15.65;12.10;;;14.40;81.90;;;;;;5038635;28;20017;-83
2021/03/25 12:57:58;;;;;;;14.73;11.82;;;14.40;82.20;;;;;;5015235;28;20030;-84
2021/03/25 13:00:41;;;;;;;15.93;12.10;;;14.50;82.60;;;;;;5040999;28;20549;-82
2021/03/25 13:03:10;;;;;;;19.02;13.32;;;14.50;83.00;;;;;;5015504;28;20064;-83
2021/03/25 13:05:35;;;;;;;16.30;11.73;;;14.50;82.60;;;;;;5026795;28;20057;-83
2021/03/25 13:08:01;;;;;;;17.67;13.45;;;14.50;82.90;;;;;;5028940;28;20065;-82
2021/03/25 13:10:29;;;;;;;18.23;12.98;;;14.50;82.30;;;;;;5021072;28;20030;-83